createdAt,value
2022-09-04T00:00:21.026Z,81.64
2022-09-04T00:03:21.359Z,80.69
2022-09-04T00:05:54.100Z,82.98
2022-09-04T00:08:45.593Z,83.79
2022-09-04T00:11:33.752Z,84.35
2022-09-04T00:14:04.908Z,85.41
2022-09-04T00:16:44.239Z,84.71
2022-09-04T00:19:35.737Z,83.29
2022-09-04T00:22:10.687Z,81.47
2022-09-04T00:24:42.572Z,81.20
2022-09-04T00:27:17.729Z,81.76
2022-09-04T00:30:05.110Z,81.30
2022-09-04T00:32:58.766Z,80.72
2022-09-04T00:35:31.674Z,80.77
2022-09-04T00:38:07.690Z,81.92
2022-09-04T00:40:34.078Z,81.71
2022-09-04T00:43:22.189Z,81.95
2022-09-04T00:46:09.874Z,83.53
2022-09-04T00:49:14.031Z,84.18
2022-09-04T00:52:16.807Z,83.64
2022-09-04T00:55:40.835Z,83.45
2022-09-04T00:58:21.170Z,83.57
2022-09-04T01:00:47.974Z,83.90
2022-09-04T01:03:41.002Z,82.88
2022-09-04T01:06:20.887Z,82.18
2022-09-04T01:09:01.299Z,81.91
2022-09-04T01:12:06.580Z,81.79
2022-09-04T01:14:49.105Z,82.87
2022-09-04T01:17:38.887Z,83.68
2022-09-04T01:20:15.975Z,82.85
2022-09-04T01:22:51.099Z,82.08
2022-09-04T01:25:56.578Z,81.62
2022-09-04T01:29:01.999Z,81.37
2022-09-04T01:31:44.358Z,82.65
2022-09-04T01:34:36.990Z,82.93
2022-09-04T01:37:43.830Z,83.62
2022-09-04T01:40:35.386Z,83.68
2022-09-04T01:43:23.473Z,84.34
2022-09-04T01:46:05.078Z,84.33
2022-09-04T01:48:45.073Z,83.71
2022-09-04T01:51:25.315Z,84.06
2022-09-04T01:54:11.716Z,84.85
2022-09-04T01:56:48.264Z,84.50
2022-09-04T01:59:29.977Z,83.54
2022-09-04T02:02:08.178Z,83.37
2022-09-04T02:04:52.491Z,82.96
2022-09-04T02:07:33.761Z,83.37
2022-09-04T02:10:12.008Z,82.98
2022-09-04T02:12:51.062Z,81.75
2022-09-04T02:15:49.283Z,81.57
2022-09-04T02:18:56.691Z,83.08
2022-09-04T02:21:38.230Z,83.03
2022-09-04T02:24:53.971Z,83.08
2022-09-04T02:27:29.270Z,83.74
2022-09-04T02:30:02.764Z,83.16
2022-09-04T02:32:58.075Z,82.78
2022-09-04T02:35:35.993Z,82.31
2022-09-04T02:38:49.268Z,81.70
2022-09-04T02:41:51.059Z,82.17
2022-09-04T02:44:45.027Z,83.52
2022-09-04T02:47:23.267Z,82.67
2022-09-04T02:50:07.811Z,82.15
2022-09-04T02:52:52.062Z,83.50
2022-09-04T02:55:18.534Z,82.73
2022-09-04T02:58:14.621Z,82.69
2022-09-04T03:00:52.141Z,82.94
2022-09-04T03:03:37.533Z,83.43
2022-09-04T03:06:14.116Z,83.98
2022-09-04T03:08:49.961Z,83.50
2022-09-04T03:11:31.862Z,83.63
2022-09-04T03:14:12.080Z,83.04
2022-09-04T03:17:10.865Z,83.71
2022-09-04T03:19:55.778Z,83.18
2022-09-04T03:22:31.005Z,83.66
2022-09-04T03:25:42.071Z,82.70
2022-09-04T03:28:17.527Z,81.61
2022-09-04T03:30:45.192Z,82.47
2022-09-04T03:33:31.783Z,83.08
2022-09-04T03:36:40.131Z,82.30
2022-09-04T03:39:14.887Z,83.71
2022-09-04T03:41:49.621Z,83.16
2022-09-04T03:44:36.091Z,82.27
2022-09-04T03:47:05.321Z,82.96
2022-09-04T03:50:08.918Z,84.38
2022-09-04T03:53:07.123Z,85.55
2022-09-04T03:55:51.931Z,84.90
2022-09-04T03:58:41.380Z,84.92
2022-09-04T04:01:33.340Z,82.50
2022-09-04T04:04:47.576Z,82.92
2022-09-04T04:07:58.729Z,82.48
2022-09-04T04:10:35.332Z,83.46
2022-09-04T04:13:16.098Z,82.52
2022-09-04T04:16:08.297Z,81.66
2022-09-04T04:18:43.969Z,81.35
2022-09-04T04:21:37.658Z,81.94
2022-09-04T04:24:27.075Z,82.11
2022-09-04T04:26:59.371Z,82.03
2022-09-04T04:29:43.877Z,82.34
2022-09-04T04:32:35.846Z,82.41
2022-09-04T04:35:17.424Z,81.81
2022-09-04T04:38:02.428Z,82.26
2022-09-04T04:40:53.567Z,82.80
2022-09-04T04:43:34.963Z,82.95
2022-09-04T04:46:20.287Z,82.04
2022-09-04T04:49:19.522Z,81.20
2022-09-04T04:52:05.701Z,80.27
2022-09-04T04:55:07.639Z,80.39
2022-09-04T04:57:39.581Z,80.30
2022-09-04T05:00:26.800Z,81.00
2022-09-04T05:03:21.571Z,81.82
2022-09-04T05:06:13.839Z,82.96
2022-09-04T05:08:52.319Z,84.07
2022-09-04T05:11:46.008Z,84.34
2022-09-04T05:14:37.031Z,85.51
2022-09-04T05:17:20.292Z,85.60
2022-09-04T05:20:11.349Z,86.69
2022-09-04T05:22:49.378Z,87.22
2022-09-04T05:25:36.630Z,88.11
2022-09-04T05:28:26.510Z,87.92
2022-09-04T05:31:07.173Z,87.80
2022-09-04T05:33:57.457Z,87.98
2022-09-04T05:36:37.269Z,87.92
2022-09-04T05:39:24.429Z,88.04
2022-09-04T05:42:06.782Z,88.01
2022-09-04T05:44:40.012Z,88.30
2022-09-04T05:47:36.234Z,87.86
2022-09-04T05:50:27.049Z,88.47
2022-09-04T05:52:53.436Z,88.51
2022-09-04T05:55:39.098Z,87.55
2022-09-04T05:58:24.331Z,88.53
2022-09-04T06:01:28.635Z,87.48
2022-09-04T06:04:28.956Z,86.20
2022-09-04T06:07:04.477Z,85.74
2022-09-04T06:10:07.922Z,87.14
2022-09-04T06:12:43.158Z,86.03
2022-09-04T06:15:22.566Z,87.08
2022-09-04T06:18:10.801Z,89.02
2022-09-04T06:20:57.447Z,88.63
2022-09-04T06:24:03.563Z,88.00
2022-09-04T06:27:03.496Z,89.91
2022-09-04T06:29:38.039Z,89.45
2022-09-04T06:32:26.232Z,87.93
2022-09-04T06:35:02.459Z,87.98
2022-09-04T06:37:57.096Z,88.35
2022-09-04T06:40:42.683Z,85.84
2022-09-04T06:43:29.504Z,82.93
2022-09-04T06:46:19.127Z,80.94
2022-09-04T06:49:15.447Z,80.60
2022-09-04T06:51:42.863Z,80.60
2022-09-04T06:54:32.218Z,81.03
2022-09-04T06:57:26.384Z,80.61
2022-09-04T07:00:13.219Z,79.74
2022-09-04T07:03:04.136Z,79.48
2022-09-04T07:05:52.718Z,79.22
2022-09-04T07:08:41.003Z,80.02
2022-09-04T07:11:24.254Z,77.89
2022-09-04T07:14:29.561Z,76.27
2022-09-04T07:17:28.434Z,72.17
2022-09-04T07:20:09.004Z,68.68
2022-09-04T07:22:44.548Z,66.17
2022-09-04T07:25:39.834Z,63.25
2022-09-04T07:28:31.269Z,60.77
2022-09-04T07:31:24.624Z,60.65
2022-09-04T07:34:24.922Z,62.69
2022-09-04T07:37:09.287Z,65.13
2022-09-04T07:40:22.940Z,66.48
2022-09-04T07:43:08.058Z,67.85
2022-09-04T07:45:38.564Z,64.02
2022-09-04T07:48:16.664Z,61.06
2022-09-04T07:51:04.583Z,57.76
2022-09-04T07:54:18.719Z,59.37
2022-09-04T07:57:14.018Z,59.46
2022-09-04T08:00:05.776Z,59.65
2022-09-04T08:03:16.929Z,59.47
2022-09-04T08:06:00.269Z,60.39
2022-09-04T08:08:47.164Z,59.43
2022-09-04T08:11:45.617Z,58.54
2022-09-04T08:14:15.081Z,57.03
2022-09-04T08:17:20.821Z,55.21
2022-09-04T08:20:11.904Z,51.77
2022-09-04T08:22:55.310Z,49.90
2022-09-04T08:25:29.636Z,53.57
2022-09-04T08:28:09.370Z,56.83
2022-09-04T08:30:48.820Z,51.69
2022-09-04T08:34:01.563Z,48.41
2022-09-04T08:36:49.053Z,47.71
2022-09-04T08:39:22.942Z,49.06
2022-09-04T08:42:13.936Z,46.84
2022-09-04T08:45:06.168Z,45.67
2022-09-04T08:47:51.540Z,46.81
2022-09-04T08:50:29.763Z,47.11
2022-09-04T08:53:27.018Z,47.28
2022-09-04T08:56:09.936Z,50.03
2022-09-04T08:59:06.935Z,47.48
2022-09-04T09:02:14.069Z,52.17
2022-09-04T09:05:02.368Z,48.40
2022-09-04T09:07:40.880Z,47.67
2022-09-04T09:10:26.488Z,45.78
2022-09-04T09:12:55.924Z,45.42
2022-09-04T09:15:40.589Z,44.21
2022-09-04T09:18:37.319Z,44.68
2022-09-04T09:21:22.027Z,44.01
2022-09-04T09:24:06.486Z,44.25
2022-09-04T09:26:49.838Z,44.79
2022-09-04T09:29:34.041Z,41.52
2022-09-04T09:32:34.494Z,40.25
2022-09-04T09:35:25.623Z,40.13
2022-09-04T09:38:13.928Z,46.19
2022-09-04T09:41:00.368Z,44.75
2022-09-04T09:43:27.130Z,42.88
2022-09-04T09:46:04.865Z,42.68
2022-09-04T09:49:02.681Z,43.48
2022-09-04T09:51:48.231Z,44.46
2022-09-04T09:54:23.860Z,44.34
2022-09-04T09:57:13.461Z,47.06
2022-09-04T09:59:45.941Z,48.60
2022-09-04T10:02:21.558Z,47.47
2022-09-04T10:05:00.204Z,46.52
2022-09-04T10:08:11.520Z,43.37
2022-09-04T10:11:01.246Z,45.04
2022-09-04T10:13:46.589Z,43.00
2022-09-04T10:16:25.327Z,40.96
2022-09-04T10:19:11.457Z,38.16
2022-09-04T10:22:15.296Z,37.21
2022-09-04T10:25:20.833Z,36.56
2022-09-04T10:28:05.354Z,35.35
2022-09-04T10:31:23.385Z,36.49
2022-09-04T10:34:12.412Z,37.35
2022-09-04T10:37:06.629Z,38.41
2022-09-04T10:40:00.845Z,34.47
2022-09-04T10:42:39.654Z,36.25
2022-09-04T10:45:24.592Z,37.16
2022-09-04T10:48:15.397Z,37.36
2022-09-04T10:51:00.072Z,37.54
2022-09-04T10:53:42.871Z,36.58
2022-09-04T10:56:48.293Z,38.05
2022-09-04T10:59:21.196Z,34.72
2022-09-04T11:02:07.954Z,35.19
2022-09-04T11:04:41.706Z,36.71
2022-09-04T11:07:17.372Z,45.75
2022-09-04T11:10:14.965Z,41.32
2022-09-04T11:13:16.511Z,37.79
2022-09-04T11:15:50.271Z,35.01
2022-09-04T11:18:25.538Z,31.97
2022-09-04T11:20:57.979Z,38.32
2022-09-04T11:23:51.939Z,36.75
2022-09-04T11:26:23.159Z,36.66
2022-09-04T11:29:30.990Z,36.35
2022-09-04T11:32:13.714Z,35.43
2022-09-04T11:35:07.923Z,34.99
2022-09-04T11:37:57.861Z,34.65
2022-09-04T11:40:33.291Z,34.82
2022-09-04T11:43:21.154Z,34.47
2022-09-04T11:46:17.838Z,39.91
2022-09-04T11:49:07.923Z,45.14
2022-09-04T11:52:02.275Z,47.07
2022-09-04T11:54:31.695Z,49.65
2022-09-04T11:57:07.743Z,46.97
2022-09-04T12:00:15.039Z,48.39
2022-09-04T12:02:50.752Z,46.82
2022-09-04T12:05:42.263Z,48.18
2022-09-04T12:08:36.077Z,47.93
2022-09-04T12:11:46.393Z,48.12
2022-09-04T12:14:47.080Z,50.47
2022-09-04T12:17:48.450Z,50.98
2022-09-04T12:20:59.678Z,50.73
2022-09-04T12:23:52.671Z,52.06
2022-09-04T12:26:51.529Z,52.50
2022-09-04T12:30:00.689Z,52.63
2022-09-04T12:32:58.243Z,51.93
2022-09-04T12:35:36.851Z,52.15
2022-09-04T12:38:24.479Z,52.84
2022-09-04T12:41:01.008Z,52.36
2022-09-04T12:43:41.719Z,51.68
2022-09-04T12:46:21.187Z,51.96
2022-09-04T12:49:09.170Z,51.37
2022-09-04T12:51:49.270Z,52.37
2022-09-04T12:54:31.453Z,51.78
2022-09-04T12:57:16.013Z,54.05
2022-09-04T12:59:54.612Z,53.47
2022-09-04T13:02:44.893Z,53.87
2022-09-04T13:05:53.497Z,54.09
2022-09-04T13:08:38.992Z,53.34
2022-09-04T13:11:32.181Z,54.32
2022-09-04T13:14:01.739Z,54.68
2022-09-04T13:16:39.020Z,52.93
2022-09-04T13:19:30.377Z,54.64
2022-09-04T13:22:50.662Z,55.12
2022-09-04T13:25:58.247Z,54.62
2022-09-04T13:28:24.678Z,54.26
2022-09-04T13:31:09.553Z,52.93
2022-09-04T13:34:01.323Z,54.63
2022-09-04T13:36:58.738Z,52.83
2022-09-04T13:39:49.198Z,51.22
2022-09-04T13:42:26.397Z,50.31
2022-09-04T13:45:13.771Z,50.02
2022-09-04T13:47:49.673Z,48.58
2022-09-04T13:50:41.644Z,48.54
2022-09-04T13:53:23.131Z,49.17
2022-09-04T13:55:54.378Z,47.53
2022-09-04T13:58:27.219Z,46.00
2022-09-04T14:00:59.345Z,44.08
2022-09-04T14:03:35.133Z,42.23
2022-09-04T14:06:05.521Z,40.60
2022-09-04T14:08:34.658Z,38.79
2022-09-04T14:11:23.500Z,36.76
2022-09-04T14:13:58.303Z,35.63
2022-09-04T14:16:25.234Z,34.81
2022-09-04T14:19:33.146Z,32.86
2022-09-04T14:22:18.514Z,34.27
2022-09-04T14:25:06.485Z,35.00
2022-09-04T14:28:03.546Z,37.13
2022-09-04T14:30:39.359Z,37.19
2022-09-04T14:33:25.079Z,36.86
2022-09-04T14:36:14.939Z,37.38
2022-09-04T14:39:04.246Z,38.53
2022-09-04T14:41:46.470Z,39.46
2022-09-04T14:44:31.882Z,39.60
2022-09-04T14:47:17.148Z,41.02
2022-09-04T14:49:48.237Z,41.74
2022-09-04T14:52:19.608Z,43.75
2022-09-04T14:54:51.369Z,44.49
2022-09-04T14:57:32.552Z,44.56
2022-09-04T15:00:08.058Z,43.44
2022-09-04T15:02:54.740Z,44.04
2022-09-04T15:05:31.130Z,45.34
2022-09-04T15:08:01.202Z,46.13
2022-09-04T15:10:42.668Z,45.58
2022-09-04T15:13:27.612Z,44.38
2022-09-04T15:16:00.102Z,43.57
2022-09-04T15:18:51.658Z,43.10
2022-09-04T15:21:25.722Z,43.07
2022-09-04T15:24:09.450Z,44.97
2022-09-04T15:26:57.329Z,45.57
2022-09-04T15:29:33.543Z,45.68
2022-09-04T15:32:04.506Z,44.98
2022-09-04T15:34:37.178Z,47.25
2022-09-04T15:37:13.511Z,47.20
2022-09-04T15:39:53.952Z,45.24
2022-09-04T15:42:38.866Z,44.55
2022-09-04T15:45:14.023Z,43.96
2022-09-04T15:48:02.377Z,44.17
2022-09-04T15:50:34.289Z,43.72
2022-09-04T15:53:27.209Z,43.72
2022-09-04T15:56:27.683Z,44.18
2022-09-04T15:59:20.427Z,43.95
2022-09-04T16:01:52.210Z,44.22
2022-09-04T16:04:42.384Z,44.61
2022-09-04T16:07:15.136Z,44.95
2022-09-04T16:10:04.376Z,45.06
2022-09-04T16:12:39.749Z,44.64
2022-09-04T16:15:21.563Z,45.51
2022-09-04T16:17:52.782Z,44.38
2022-09-04T16:20:58.104Z,44.50
2022-09-04T16:23:31.485Z,44.18
2022-09-04T16:25:59.830Z,43.57
2022-09-04T16:28:31.654Z,43.99
2022-09-04T16:31:06.410Z,43.58
2022-09-04T16:33:37.404Z,43.23
2022-09-04T16:36:08.148Z,42.48
2022-09-04T16:38:48.809Z,42.74
2022-09-04T16:41:39.738Z,42.99
2022-09-04T16:44:25.859Z,43.14
2022-09-04T16:47:11.734Z,43.24
2022-09-04T16:50:02.536Z,44.05
2022-09-04T16:52:34.419Z,44.29
2022-09-04T16:55:16.140Z,44.40
2022-09-04T16:58:07.348Z,44.02
2022-09-04T17:00:49.125Z,43.43
2022-09-04T17:03:24.211Z,43.23
2022-09-04T17:06:06.122Z,43.55
2022-09-04T17:08:38.359Z,43.68
2022-09-04T17:11:22.109Z,44.98
2022-09-04T17:14:22.490Z,45.54
2022-09-04T17:17:03.502Z,45.54
2022-09-04T17:20:08.914Z,45.69
2022-09-04T17:28:57.900Z,46.59
2022-09-04T17:29:18.567Z,47.27
2022-09-04T17:29:33.773Z,47.49
2022-09-04T17:34:04.314Z,48.21
2022-09-04T17:40:39.845Z,48.77
2022-09-04T17:40:51.766Z,49.38
2022-09-04T17:42:19.853Z,50.60
2022-09-04T17:45:08.401Z,50.68
2022-09-04T17:47:43.239Z,51.21
2022-09-04T17:50:19.222Z,51.44
2022-09-04T17:53:08.225Z,52.51
2022-09-04T17:56:00.036Z,53.19
2022-09-04T17:58:35.714Z,53.41
2022-09-04T18:01:14.854Z,54.10
2022-09-04T18:04:20.217Z,55.16
2022-09-04T18:06:55.019Z,55.56
2022-09-04T18:09:39.984Z,56.17
2022-09-04T18:12:45.905Z,57.09
2022-09-04T18:15:33.219Z,58.15
2022-09-04T18:18:17.466Z,58.94
2022-09-04T18:20:52.850Z,59.70
2022-09-04T18:23:51.311Z,59.65
2022-09-04T18:26:40.119Z,60.98
2022-09-04T18:31:46.443Z,61.31
2022-09-04T18:37:23.393Z,61.95
2022-09-04T18:37:26.725Z,62.62
2022-09-04T18:39:21.418Z,63.14
2022-09-04T18:47:30.562Z,63.54
2022-09-04T18:50:38.246Z,63.99
2022-09-04T18:50:39.226Z,64.54
2022-09-04T18:53:39.352Z,65.43
2022-09-04T18:56:26.621Z,66.01
2022-09-04T18:59:05.758Z,66.80
2022-09-04T19:01:46.126Z,67.07
2022-09-04T19:04:18.587Z,66.90
2022-09-04T19:07:07.455Z,67.36
2022-09-04T19:10:15.765Z,67.64
2022-09-04T19:13:02.260Z,68.28
2022-09-04T19:15:45.798Z,69.56
2022-09-04T19:18:12.461Z,69.17
2022-09-04T19:20:47.497Z,69.94
2022-09-04T19:23:24.193Z,70.19
2022-09-04T19:25:55.091Z,69.90
2022-09-04T19:28:30.897Z,69.92
2022-09-04T19:31:02.903Z,69.87
2022-09-04T19:33:43.296Z,72.38
2022-09-04T19:36:20.031Z,72.29
2022-09-04T19:45:57.805Z,70.90
2022-09-04T19:46:00.183Z,69.53
2022-09-04T19:46:17.918Z,69.56
2022-09-04T19:47:51.193Z,70.39
2022-09-04T19:53:20.004Z,71.31
2022-09-04T19:53:46.985Z,72.02
2022-09-04T19:56:38.042Z,71.55
2022-09-04T19:59:45.999Z,72.10
2022-09-04T20:02:29.774Z,72.11
2022-09-04T20:05:00.495Z,72.75
2022-09-04T20:07:47.309Z,72.88
2022-09-04T20:10:45.216Z,72.95
2022-09-04T20:13:28.980Z,72.94
2022-09-04T20:16:21.727Z,73.35
2022-09-04T20:18:57.806Z,73.60
2022-09-04T20:21:27.303Z,73.81
2022-09-04T20:24:37.466Z,73.21
2022-09-04T20:27:10.364Z,73.84
2022-09-04T20:30:03.320Z,73.93
2022-09-04T20:32:53.948Z,73.97
2022-09-04T20:35:44.147Z,74.43
2022-09-04T20:38:23.262Z,74.49
2022-09-04T20:40:57.560Z,74.14
2022-09-04T20:43:33.409Z,73.74
2022-09-04T20:50:55.090Z,73.51
2022-09-04T20:52:44.421Z,74.02
2022-09-04T20:52:57.429Z,73.88
2022-09-04T20:55:01.287Z,73.65
2022-09-04T21:01:45.859Z,73.55
2022-09-04T21:03:17.495Z,74.12
2022-09-04T21:04:15.462Z,74.31
2022-09-04T21:06:52.043Z,75.45
2022-09-04T21:09:37.279Z,75.29
2022-09-04T21:12:21.466Z,74.55
2022-09-04T21:15:14.758Z,75.31
2022-09-04T21:18:04.304Z,75.18
2022-09-04T21:20:59.411Z,75.66
2022-09-04T21:24:03.650Z,75.08
2022-09-04T21:27:01.889Z,74.97
2022-09-04T21:29:51.868Z,75.25
2022-09-04T21:32:39.208Z,74.47
2022-09-04T21:35:31.609Z,74.52
2022-09-04T21:38:11.579Z,75.23
2022-09-04T21:41:07.853Z,75.82
2022-09-04T21:44:09.263Z,76.43
2022-09-04T21:47:08.591Z,76.68
2022-09-04T21:49:37.906Z,76.68
2022-09-04T21:52:28.945Z,77.20
2022-09-04T22:00:54.813Z,76.24
2022-09-04T22:02:36.659Z,76.32
2022-09-04T22:02:40.789Z,76.18
2022-09-04T22:05:00.774Z,75.62
2022-09-04T22:13:06.277Z,76.16
2022-09-04T22:13:33.557Z,76.43
2022-09-04T22:13:51.305Z,76.75
2022-09-04T22:16:29.098Z,77.08
2022-09-04T22:19:16.293Z,77.90
2022-09-04T22:21:43.334Z,77.12
2022-09-04T22:24:32.287Z,76.76
2022-09-04T22:27:15.010Z,76.66
2022-09-04T22:30:04.875Z,76.80
2022-09-04T22:32:40.604Z,77.19
2022-09-04T22:35:36.979Z,77.05
2022-09-04T22:38:34.186Z,77.67
2022-09-04T22:41:12.085Z,77.37
2022-09-04T22:43:46.727Z,77.66
2022-09-04T22:46:16.330Z,77.92
2022-09-04T22:49:12.411Z,77.78
2022-09-04T22:52:19.067Z,77.55
2022-09-04T22:55:39.168Z,77.88
2022-09-04T22:58:43.353Z,77.87
2022-09-04T23:01:38.099Z,77.99
2022-09-04T23:04:32.489Z,78.19
2022-09-04T23:11:26.999Z,78.73
2022-09-04T23:13:50.285Z,78.69
2022-09-04T23:13:51.048Z,78.65
2022-09-04T23:16:36.834Z,77.36
2022-09-04T23:24:54.851Z,78.66
2022-09-04T23:26:47.728Z,78.41
2022-09-04T23:26:58.464Z,78.44
2022-09-04T23:28:54.578Z,79.04
2022-09-04T23:31:39.752Z,78.72
2022-09-04T23:34:30.045Z,79.03
2022-09-04T23:37:35.232Z,79.23
2022-09-04T23:40:19.014Z,78.42
2022-09-04T23:43:04.154Z,79.00
2022-09-04T23:46:01.310Z,78.78
2022-09-04T23:48:55.387Z,79.03
2022-09-04T23:51:51.894Z,79.34
2022-09-04T23:55:19.838Z,79.51
2022-09-04T23:58:32.967Z,80.13
